createdAt,value
2022-10-12T00:01:19.616Z,4.30
2022-10-12T00:03:46.365Z,4.20
2022-10-12T00:06:20.986Z,4.60
2022-10-12T00:08:50.876Z,5.00
2022-10-12T00:11:27.209Z,4.20
2022-10-12T00:13:56.215Z,4.90
2022-10-12T00:16:24.390Z,4.10
2022-10-12T00:18:56.953Z,4.30
2022-10-12T00:21:26.662Z,4.10
2022-10-12T00:24:02.931Z,4.50
2022-10-12T00:26:30.647Z,3.60
2022-10-12T00:29:01.873Z,3.50
2022-10-12T00:31:29.602Z,3.20
2022-10-12T00:34:00.314Z,3.60
2022-10-12T00:36:32.408Z,3.70
2022-10-12T00:39:00.225Z,3.60
2022-10-12T00:41:31.485Z,3.80
2022-10-12T00:43:59.132Z,3.90
2022-10-12T00:46:49.527Z,4.20
2022-10-12T00:49:20.484Z,4.20
2022-10-12T00:51:52.060Z,3.90
2022-10-12T00:54:25.939Z,3.90
2022-10-12T00:57:04.062Z,4.40
2022-10-12T00:59:49.937Z,4.10
2022-10-12T01:02:19.867Z,3.70
2022-10-12T01:04:46.942Z,3.90
2022-10-12T01:07:18.141Z,3.50
2022-10-12T01:09:46.782Z,3.00
2022-10-12T01:12:13.788Z,3.40
2022-10-12T01:14:41.039Z,3.40
2022-10-12T01:17:26.731Z,4.30
2022-10-12T01:20:28.268Z,3.30
2022-10-12T01:23:18.677Z,3.70
2022-10-12T01:26:16.772Z,3.50
2022-10-12T01:28:54.352Z,3.40
2022-10-12T01:31:45.786Z,3.50
2022-10-12T01:34:22.073Z,3.80
2022-10-12T01:37:01.246Z,3.80
2022-10-12T01:39:39.968Z,3.10
2022-10-12T01:42:18.039Z,3.40
2022-10-12T01:44:47.752Z,3.40
2022-10-12T01:47:14.329Z,3.20
2022-10-12T01:49:44.419Z,3.30
2022-10-12T01:52:34.532Z,4.20
2022-10-12T01:55:45.268Z,3.80
2022-10-12T01:58:48.223Z,3.40
2022-10-12T02:01:45.172Z,3.70
2022-10-12T02:06:49.795Z,3.70
2022-10-12T02:09:29.518Z,4.10
2022-10-12T02:12:00.256Z,3.40
2022-10-12T02:14:33.148Z,3.50
2022-10-12T02:17:08.079Z,3.30
2022-10-12T02:19:42.257Z,3.50
2022-10-12T02:22:11.824Z,3.40
2022-10-12T02:24:43.101Z,4.20
2022-10-12T02:27:14.300Z,3.90
2022-10-12T02:29:49.166Z,3.50
2022-10-12T02:32:30.206Z,4.20
2022-10-12T02:35:08.839Z,4.10
2022-10-12T02:37:44.981Z,3.60
2022-10-12T02:40:25.420Z,3.60
2022-10-12T02:43:10.285Z,3.60
2022-10-12T02:45:42.906Z,3.10
2022-10-12T02:48:16.435Z,3.40
2022-10-12T02:50:46.949Z,3.30
2022-10-12T02:53:14.600Z,4.20
2022-10-12T02:55:49.978Z,4.00
2022-10-12T02:58:19.433Z,3.80
2022-10-12T03:00:46.881Z,4.60
2022-10-12T03:03:14.498Z,3.90
2022-10-12T03:05:43.145Z,3.60
2022-10-12T03:08:09.696Z,3.50
2022-10-12T03:10:38.161Z,3.60
2022-10-12T03:13:12.479Z,3.40
2022-10-12T03:15:41.563Z,3.40
2022-10-12T03:18:08.323Z,3.40
2022-10-12T03:20:35.165Z,3.70
2022-10-12T03:23:01.736Z,4.30
2022-10-12T03:25:31.494Z,3.70
2022-10-12T03:27:58.024Z,3.90
2022-10-12T03:30:24.584Z,3.90
2022-10-12T03:32:55.060Z,4.20
2022-10-12T03:35:21.634Z,3.70
2022-10-12T03:37:50.421Z,3.50
2022-10-12T03:40:17.010Z,3.30
2022-10-12T03:42:43.687Z,3.60
2022-10-12T03:45:10.788Z,3.10
2022-10-12T03:47:39.528Z,4.50
2022-10-12T03:50:06.995Z,4.00
2022-10-12T03:52:36.969Z,4.40
2022-10-12T03:55:06.143Z,3.90
2022-10-12T03:57:35.212Z,4.40
2022-10-12T04:00:03.990Z,4.10
2022-10-12T04:02:38.750Z,4.30
2022-10-12T04:05:07.136Z,4.10
2022-10-12T04:07:33.951Z,3.50
2022-10-12T04:10:03.352Z,3.50
2022-10-12T04:12:29.980Z,3.50
2022-10-12T04:14:56.482Z,4.10
2022-10-12T04:17:25.065Z,3.60
2022-10-12T04:19:52.664Z,3.40
2022-10-12T04:22:20.672Z,4.20
2022-10-12T04:24:56.488Z,4.10
2022-10-12T04:27:25.445Z,3.80
2022-10-12T04:29:53.745Z,3.70
2022-10-12T04:32:21.805Z,3.50
2022-10-12T04:34:49.025Z,3.50
2022-10-12T04:37:19.254Z,3.10
2022-10-12T04:39:47.286Z,3.90
2022-10-12T04:42:15.218Z,3.30
2022-10-12T04:44:42.782Z,2.90
2022-10-12T04:47:09.305Z,4.50
2022-10-12T04:49:35.981Z,3.30
2022-10-12T04:52:04.079Z,3.10
2022-10-12T04:54:33.014Z,3.10
2022-10-12T04:57:00.293Z,4.00
2022-10-12T04:59:27.458Z,3.70
2022-10-12T05:01:55.265Z,3.10
2022-10-12T05:04:21.900Z,3.00
2022-10-12T05:06:49.931Z,3.60
2022-10-12T05:09:17.311Z,3.30
2022-10-12T05:11:52.964Z,3.00
2022-10-12T05:14:20.659Z,3.30
2022-10-12T05:16:48.838Z,3.40
2022-10-12T05:19:15.617Z,3.50
2022-10-12T05:21:45.498Z,3.00
2022-10-12T05:24:15.412Z,4.00
2022-10-12T05:26:43.039Z,2.90
2022-10-12T05:29:12.185Z,3.70
2022-10-12T05:31:39.817Z,3.30
2022-10-12T05:34:13.625Z,3.00
2022-10-12T05:36:40.764Z,3.30
2022-10-12T05:39:08.902Z,3.60
2022-10-12T05:41:36.240Z,3.10
2022-10-12T05:44:04.284Z,3.90
2022-10-12T05:46:34.079Z,3.80
2022-10-12T05:49:00.639Z,4.60
2022-10-12T05:51:29.603Z,5.10
2022-10-12T05:53:57.791Z,3.80
2022-10-12T05:56:24.340Z,3.60
2022-10-12T05:58:50.865Z,4.10
2022-10-12T06:01:18.315Z,3.40
2022-10-12T06:03:46.200Z,3.20
2022-10-12T06:06:14.823Z,3.70
2022-10-12T06:08:43.315Z,3.80
2022-10-12T06:11:11.312Z,3.80
2022-10-12T06:13:40.279Z,4.00
2022-10-12T06:16:07.973Z,4.10
2022-10-12T06:18:35.663Z,4.40
2022-10-12T06:21:28.378Z,3.50
2022-10-12T06:23:50.869Z,4.10
2022-10-12T06:26:18.504Z,4.20
2022-10-12T06:28:46.430Z,3.40
2022-10-12T06:31:15.133Z,3.60
2022-10-12T06:33:41.960Z,3.50
2022-10-12T06:36:09.911Z,3.70
2022-10-12T06:38:41.448Z,3.90
2022-10-12T06:41:09.165Z,4.30
2022-10-12T06:43:37.166Z,3.50
2022-10-12T06:46:05.017Z,3.80
2022-10-12T06:48:35.279Z,3.70
2022-10-12T06:51:08.434Z,3.60
2022-10-12T06:53:35.626Z,3.70
2022-10-12T06:56:09.849Z,3.80
2022-10-12T06:58:38.207Z,3.80
2022-10-12T07:01:07.700Z,3.30
2022-10-12T07:03:35.234Z,3.00
2022-10-12T07:06:07.506Z,2.90
2022-10-12T07:08:35.260Z,3.10
2022-10-12T07:11:05.795Z,3.30
2022-10-12T07:13:33.995Z,3.60
2022-10-12T07:16:03.868Z,3.40
2022-10-12T07:18:30.883Z,3.40
2022-10-12T07:21:05.250Z,3.30
2022-10-12T07:23:34.663Z,3.60
2022-10-12T07:26:01.894Z,4.00
2022-10-12T07:28:30.257Z,3.00
2022-10-12T07:31:03.637Z,3.10
2022-10-12T07:33:36.170Z,2.60
2022-10-12T07:36:21.677Z,3.30
2022-10-12T07:38:49.549Z,2.50
2022-10-12T07:41:16.232Z,2.90
2022-10-12T07:43:44.322Z,3.80
2022-10-12T07:46:12.277Z,4.20
2022-10-12T07:48:50.074Z,3.60
2022-10-12T07:51:18.915Z,2.80
2022-10-12T07:53:46.233Z,2.80
2022-10-12T07:56:17.245Z,2.40
2022-10-12T07:58:55.535Z,2.90
2022-10-12T08:01:25.021Z,3.00
2022-10-12T08:04:00.314Z,2.80
2022-10-12T08:06:31.562Z,2.80
2022-10-12T08:09:03.992Z,3.10
2022-10-12T08:11:31.403Z,2.80
2022-10-12T08:14:01.096Z,2.60
2022-10-12T08:16:27.744Z,3.00
2022-10-12T08:18:54.572Z,2.40
2022-10-12T08:21:21.513Z,1.60
2022-10-12T08:23:49.790Z,2.70
2022-10-12T08:26:17.779Z,2.30
2022-10-12T08:28:45.880Z,2.70
2022-10-12T08:31:14.922Z,2.10
2022-10-12T08:33:41.972Z,2.60
2022-10-12T08:36:12.045Z,2.90
2022-10-12T08:38:43.783Z,2.30
2022-10-12T08:41:24.256Z,2.60
2022-10-12T08:44:19.337Z,2.30
2022-10-12T08:46:46.178Z,2.30
2022-10-12T08:49:19.498Z,2.40
2022-10-12T08:51:53.306Z,1.80
2022-10-12T08:54:24.465Z,2.00
2022-10-12T08:56:54.333Z,1.80
2022-10-12T08:59:28.176Z,3.00
2022-10-12T09:02:22.149Z,2.10
2022-10-12T09:04:59.376Z,2.10
2022-10-12T09:07:40.114Z,2.50
2022-10-12T09:10:32.186Z,2.40
2022-10-12T09:13:35.555Z,2.30
2022-10-12T09:16:28.155Z,2.10
2022-10-12T09:19:35.219Z,2.20
2022-10-12T09:22:04.406Z,1.70
2022-10-12T09:24:39.410Z,2.80
2022-10-12T09:29:49.418Z,2.20
2022-10-12T09:32:39.197Z,2.20
2022-10-12T09:35:08.191Z,2.00
2022-10-12T09:37:44.063Z,2.50
2022-10-12T09:40:33.478Z,1.90
2022-10-12T09:43:02.567Z,1.70
2022-10-12T09:45:34.282Z,2.00
2022-10-12T09:48:15.940Z,1.90
2022-10-12T09:50:48.753Z,2.30
2022-10-12T09:53:45.681Z,2.50
2022-10-12T09:56:22.096Z,3.10
2022-10-12T09:59:01.198Z,1.60
2022-10-12T10:01:30.644Z,1.70
2022-10-12T10:04:10.312Z,1.40
2022-10-12T10:06:39.306Z,1.70
2022-10-12T10:09:07.222Z,1.80
2022-10-12T10:11:34.116Z,1.80
2022-10-12T10:14:02.166Z,1.90
2022-10-12T10:16:30.908Z,1.50
2022-10-12T10:19:01.483Z,2.00
2022-10-12T10:21:36.389Z,1.50
2022-10-12T10:24:06.023Z,1.40
2022-10-12T10:27:26.758Z,1.30
2022-10-12T10:30:28.604Z,1.40
2022-10-12T10:33:19.312Z,1.30
2022-10-12T10:36:26.385Z,1.70
2022-10-12T10:39:05.556Z,1.40
2022-10-12T10:41:41.734Z,1.60
2022-10-12T10:44:33.366Z,1.60
2022-10-12T10:47:09.279Z,1.20
2022-10-12T10:50:20.489Z,1.20
2022-10-12T10:52:58.744Z,1.40
2022-10-12T10:55:42.407Z,1.30
2022-10-12T10:58:28.304Z,1.40
2022-10-12T11:01:15.040Z,1.20
2022-10-12T11:03:54.975Z,1.80
2022-10-12T11:06:44.748Z,1.60
2022-10-12T11:09:31.142Z,1.50
2022-10-12T11:12:07.350Z,1.60
2022-10-12T11:14:43.289Z,1.40
2022-10-12T11:17:17.197Z,1.60
2022-10-12T11:19:52.889Z,1.50
2022-10-12T11:22:32.290Z,1.60
2022-10-12T11:25:09.692Z,2.00
2022-10-12T11:27:40.585Z,1.30
2022-10-12T11:30:16.899Z,1.20
2022-10-12T11:32:49.939Z,1.60
2022-10-12T11:35:27.052Z,1.40
2022-10-12T11:38:16.439Z,1.50
2022-10-12T11:43:55.476Z,1.80
2022-10-12T11:46:33.592Z,1.20
2022-10-12T11:49:27.435Z,1.20
2022-10-12T11:51:59.726Z,1.50
2022-10-12T11:55:05.430Z,1.30
2022-10-12T11:57:38.076Z,1.60
2022-10-12T12:00:24.272Z,1.20
2022-10-12T12:02:59.734Z,1.30
2022-10-12T12:05:32.381Z,1.60
2022-10-12T12:07:59.052Z,1.20
2022-10-12T12:10:26.820Z,1.20
2022-10-12T12:13:15.254Z,1.20
2022-10-12T12:15:52.543Z,1.50
2022-10-12T12:18:30.450Z,1.10
2022-10-12T12:21:06.868Z,1.40
2022-10-12T12:23:45.527Z,1.40
2022-10-12T12:26:19.580Z,1.30
2022-10-12T12:28:48.931Z,1.30
2022-10-12T12:31:22.657Z,1.40
2022-10-12T12:34:14.075Z,1.10
2022-10-12T12:36:45.413Z,1.80
2022-10-12T12:39:30.395Z,1.50
2022-10-12T12:42:02.300Z,1.30
2022-10-12T12:44:42.989Z,1.40
2022-10-12T12:50:01.218Z,0.90
2022-10-12T12:52:33.483Z,1.50
2022-10-12T12:55:16.474Z,1.40
2022-10-12T12:58:18.118Z,1.70
2022-10-12T13:00:58.781Z,1.30
2022-10-12T13:04:03.705Z,1.50
2022-10-12T13:07:12.389Z,1.40
2022-10-12T13:10:09.578Z,1.00
2022-10-12T13:12:52.724Z,1.20
2022-10-12T13:15:44.009Z,1.30
2022-10-12T13:18:45.785Z,1.50
2022-10-12T13:21:20.031Z,1.30
2022-10-12T13:23:51.285Z,1.10
2022-10-12T13:26:24.842Z,0.90
2022-10-12T13:28:57.122Z,1.20
2022-10-12T13:31:44.598Z,1.50
2022-10-12T13:34:38.396Z,1.30
2022-10-12T13:37:12.419Z,1.40
2022-10-12T13:39:43.231Z,1.70
2022-10-12T13:42:15.199Z,1.50
2022-10-12T13:44:44.561Z,1.60
2022-10-12T13:47:33.737Z,1.30
2022-10-12T13:50:01.565Z,1.40
2022-10-12T13:52:34.150Z,1.40
2022-10-12T13:55:15.320Z,1.40
2022-10-12T13:57:49.289Z,1.50
2022-10-12T14:00:16.484Z,1.70
2022-10-12T14:02:57.952Z,1.40
2022-10-12T14:05:30.738Z,1.30
2022-10-12T14:08:02.262Z,1.40
2022-10-12T14:10:36.232Z,1.40
2022-10-12T14:13:06.609Z,1.30
2022-10-12T14:15:39.347Z,1.50
2022-10-12T14:18:37.799Z,1.60
2022-10-12T14:21:17.997Z,1.30
2022-10-12T14:23:47.970Z,1.50
2022-10-12T14:26:29.331Z,1.50
2022-10-12T14:29:01.483Z,1.80
2022-10-12T14:31:55.959Z,1.70
2022-10-12T14:34:36.943Z,1.50
2022-10-12T14:37:03.972Z,1.40
2022-10-12T14:39:32.297Z,1.30
2022-10-12T14:42:19.686Z,1.20
2022-10-12T14:44:50.381Z,1.40
2022-10-12T14:47:23.946Z,1.20
2022-10-12T14:49:53.599Z,1.60
2022-10-12T14:52:25.026Z,1.30
2022-10-12T14:57:31.150Z,1.20
2022-10-12T14:59:59.012Z,1.40
2022-10-12T15:02:28.793Z,1.00
2022-10-12T15:04:56.472Z,0.90
2022-10-12T15:07:31.087Z,1.30
2022-10-12T15:10:00.299Z,1.30
2022-10-12T15:12:32.817Z,1.50
2022-10-12T15:15:02.029Z,0.90
2022-10-12T15:17:28.620Z,1.40
2022-10-12T15:19:55.773Z,1.10
2022-10-12T15:22:26.986Z,1.30
2022-10-12T15:24:55.140Z,1.10
2022-10-12T15:27:22.002Z,1.20
2022-10-12T15:29:51.426Z,1.20
2022-10-12T15:32:19.367Z,1.00
2022-10-12T15:34:47.082Z,1.30
2022-10-12T15:37:14.849Z,1.20
2022-10-12T15:39:42.703Z,1.30
2022-10-12T15:42:11.866Z,1.30
2022-10-12T15:44:41.588Z,1.30
2022-10-12T15:47:11.579Z,1.00
2022-10-12T15:49:41.369Z,1.00
2022-10-12T15:52:11.322Z,1.00
2022-10-12T15:54:40.310Z,1.20
2022-10-12T15:57:07.051Z,1.00
2022-10-12T15:59:35.209Z,1.10
2022-10-12T16:02:01.905Z,1.20
2022-10-12T16:04:29.531Z,1.40
2022-10-12T16:06:56.140Z,1.30
2022-10-12T16:09:24.931Z,1.40
2022-10-12T16:11:51.506Z,1.30
2022-10-12T16:14:19.330Z,1.40
2022-10-12T16:16:50.088Z,1.20
2022-10-12T16:19:20.758Z,1.40
2022-10-12T16:21:49.591Z,1.30
2022-10-12T16:24:17.936Z,1.70
2022-10-12T16:26:47.186Z,1.40
2022-10-12T16:29:15.702Z,1.40
2022-10-12T16:34:09.811Z,1.70
2022-10-12T16:36:39.173Z,2.30
2022-10-12T16:39:05.863Z,1.60
2022-10-12T16:41:35.975Z,1.90
2022-10-12T16:44:03.663Z,1.90
2022-10-12T16:46:31.413Z,1.90
2022-10-12T16:48:58.426Z,2.00
2022-10-12T16:51:26.073Z,1.90
2022-10-12T16:53:56.392Z,2.10
2022-10-12T16:56:22.835Z,2.50
2022-10-12T16:58:53.357Z,2.30
2022-10-12T17:01:20.539Z,1.90
2022-10-12T17:03:48.868Z,2.60
2022-10-12T17:06:17.114Z,2.10
2022-10-12T17:08:43.896Z,2.30
2022-10-12T17:11:13.868Z,2.40
2022-10-12T17:13:45.335Z,2.30
2022-10-12T17:16:36.253Z,2.30
2022-10-12T17:19:03.869Z,2.40
2022-10-12T17:21:30.861Z,2.30
2022-10-12T17:24:00.581Z,2.10
2022-10-12T17:26:27.668Z,2.40
2022-10-12T17:28:57.151Z,2.80
2022-10-12T17:31:26.843Z,2.60
2022-10-12T17:33:54.241Z,2.80
2022-10-12T17:36:27.181Z,2.90
2022-10-12T17:38:58.032Z,2.80
2022-10-12T17:41:28.779Z,3.30
2022-10-12T17:43:55.338Z,2.70
2022-10-12T17:46:23.090Z,2.90
2022-10-12T17:48:50.739Z,2.60
2022-10-12T17:51:18.337Z,2.90
2022-10-12T17:53:47.290Z,3.20
2022-10-12T17:56:15.432Z,3.60
2022-10-12T17:58:43.751Z,3.30
2022-10-12T18:01:13.830Z,3.60
2022-10-12T18:03:43.276Z,3.40
2022-10-12T18:06:17.106Z,3.20
2022-10-12T18:08:44.790Z,3.50
2022-10-12T18:11:14.060Z,3.70
2022-10-12T18:13:44.762Z,3.70
2022-10-12T18:16:11.473Z,3.60
2022-10-12T18:18:39.439Z,3.00
2022-10-12T18:21:08.178Z,3.50
2022-10-12T18:23:37.787Z,3.70
2022-10-12T18:26:08.995Z,3.40
2022-10-12T18:28:36.495Z,3.50
2022-10-12T18:31:04.244Z,3.80
2022-10-12T18:33:31.448Z,3.40
2022-10-12T18:36:04.085Z,3.50
2022-10-12T18:38:32.352Z,3.80
2022-10-12T18:41:12.031Z,3.20
2022-10-12T18:43:47.677Z,3.90
2022-10-12T18:46:16.982Z,3.30
2022-10-12T18:48:44.145Z,3.40
2022-10-12T18:51:21.390Z,3.70
2022-10-12T18:53:48.673Z,3.50
2022-10-12T18:56:18.819Z,3.40
2022-10-12T18:58:45.476Z,4.80
2022-10-12T19:01:14.862Z,4.00
2022-10-12T19:03:42.320Z,4.60
2022-10-12T19:06:14.735Z,3.80
2022-10-12T19:08:43.804Z,4.60
2022-10-12T19:11:12.136Z,7.50
2022-10-12T19:13:40.339Z,4.60
2022-10-12T19:16:16.059Z,5.30
2022-10-12T19:18:43.141Z,3.50
2022-10-12T19:21:13.284Z,2.90
2022-10-12T19:23:40.648Z,3.30
2022-10-12T19:26:11.805Z,3.20
2022-10-12T19:28:42.375Z,3.10
2022-10-12T19:31:27.485Z,2.90
2022-10-12T19:33:57.063Z,3.50
2022-10-12T19:36:24.742Z,3.30
2022-10-12T19:38:52.169Z,3.30
2022-10-12T19:41:18.829Z,3.90
2022-10-12T19:43:47.561Z,3.40
2022-10-12T19:46:14.358Z,3.30
2022-10-12T19:48:45.424Z,3.00
2022-10-12T19:51:17.205Z,3.40
2022-10-12T19:53:45.744Z,3.40
2022-10-12T19:56:18.926Z,3.10
2022-10-12T19:58:48.101Z,3.30
2022-10-12T20:01:21.433Z,4.20
2022-10-12T20:03:50.521Z,3.50
2022-10-12T20:06:23.235Z,3.50
2022-10-12T20:08:54.138Z,3.40
2022-10-12T20:11:24.756Z,3.50
2022-10-12T20:13:52.638Z,3.80
2022-10-12T20:16:20.262Z,3.10
2022-10-12T20:18:54.742Z,3.20
2022-10-12T20:21:25.086Z,2.70
2022-10-12T20:23:52.833Z,3.70
2022-10-12T20:26:25.681Z,4.10
2022-10-12T20:28:54.266Z,3.30
2022-10-12T20:31:23.818Z,3.80
2022-10-12T20:33:53.219Z,4.00
2022-10-12T20:36:25.828Z,3.90
2022-10-12T20:38:53.114Z,3.40
2022-10-12T20:41:21.808Z,3.20
2022-10-12T20:43:49.539Z,3.40
2022-10-12T20:46:18.401Z,3.20
2022-10-12T20:48:46.214Z,4.00
2022-10-12T20:51:37.042Z,4.90
2022-10-12T20:54:06.551Z,3.70
2022-10-12T20:56:41.115Z,3.60
2022-10-12T20:59:07.676Z,4.50
2022-10-12T21:01:43.205Z,3.60
2022-10-12T21:04:10.312Z,3.90
2022-10-12T21:06:38.241Z,3.70
2022-10-12T21:09:07.106Z,3.60
2022-10-12T21:11:35.176Z,3.50
2022-10-12T21:14:01.969Z,3.60
2022-10-12T21:16:29.824Z,4.20
2022-10-12T21:18:59.521Z,3.00
2022-10-12T21:21:27.280Z,2.80
2022-10-12T21:24:00.036Z,2.90
2022-10-12T21:26:30.573Z,2.80
2022-10-12T21:29:05.147Z,3.40
2022-10-12T21:31:32.996Z,3.60
2022-10-12T21:34:02.207Z,3.40
2022-10-12T21:36:31.074Z,3.60
2022-10-12T21:38:58.258Z,3.30
2022-10-12T21:41:28.271Z,3.50
2022-10-12T21:43:57.877Z,3.20
2022-10-12T21:46:32.103Z,3.40
2022-10-12T21:49:00.341Z,3.60
2022-10-12T21:51:30.631Z,3.50
2022-10-12T21:53:59.862Z,4.20
2022-10-12T21:56:36.299Z,3.10
2022-10-12T21:59:05.294Z,3.00
2022-10-12T22:01:42.939Z,3.30
2022-10-12T22:04:15.209Z,3.00
2022-10-12T22:06:43.779Z,3.10
2022-10-12T22:09:16.439Z,3.30
2022-10-12T22:11:45.032Z,3.20
2022-10-12T22:14:16.196Z,2.60
2022-10-12T22:16:43.290Z,3.10
2022-10-12T22:19:15.919Z,3.10
2022-10-12T22:21:44.078Z,3.40
2022-10-12T22:24:11.330Z,3.30
2022-10-12T22:26:39.588Z,2.90
2022-10-12T22:29:10.443Z,3.50
2022-10-12T22:31:40.563Z,3.70
2022-10-12T22:34:07.639Z,3.50
2022-10-12T22:36:41.554Z,3.30
2022-10-12T22:39:09.262Z,3.60
2022-10-12T22:41:36.906Z,3.60
2022-10-12T22:44:05.490Z,3.10
2022-10-12T22:46:33.109Z,3.50
2022-10-12T22:48:59.649Z,3.40
2022-10-12T22:51:35.068Z,3.10
2022-10-12T22:54:05.541Z,3.20
2022-10-12T22:56:34.226Z,3.10
2022-10-12T22:59:06.505Z,3.00
2022-10-12T23:01:35.396Z,3.60
2022-10-12T23:04:02.085Z,2.80
2022-10-12T23:06:54.188Z,2.80
2022-10-12T23:09:21.712Z,3.00
2022-10-12T23:11:50.216Z,3.50
2022-10-12T23:14:20.022Z,3.50
2022-10-12T23:16:48.493Z,3.50
2022-10-12T23:19:16.231Z,3.00
2022-10-12T23:21:44.643Z,2.90
2022-10-12T23:24:12.600Z,3.30
2022-10-12T23:26:39.278Z,3.80
2022-10-12T23:29:06.979Z,3.60
2022-10-12T23:31:35.640Z,3.30
2022-10-12T23:34:08.061Z,2.90
2022-10-12T23:36:35.137Z,3.10
2022-10-12T23:39:05.339Z,3.70
2022-10-12T23:41:33.085Z,3.30
2022-10-12T23:44:00.126Z,3.50
2022-10-12T23:46:27.776Z,3.30
2022-10-12T23:48:56.358Z,3.60
2022-10-12T23:51:31.638Z,3.60
2022-10-12T23:53:58.265Z,3.50
2022-10-12T23:56:25.259Z,3.40
2022-10-12T23:58:52.915Z,3.10
